Time,TemperatureF,DewpointF,PressureIn,WindDirection,WindDirectionDegrees,WindSpeedMPH,WindSpeedGustMPH,Humidity,HourlyPrecipIn,Conditions,Clouds,dailyrainin,SoftwareType,DateUTC
2013-01-03 00:14:00,8.2,-0.8,29.90,WNW,292,13.5,-999.0,66,-99.99,,,0.00,Acu-Link.com,2013-01-03 05:14:00,
2013-01-03 00:29:00,8.2,-1.8,29.92,WNW,292,15.0,-999.0,63,-99.99,,,0.00,Acu-Link.com,2013-01-03 05:29:00,
2013-01-03 00:45:00,8.4,-1.6,29.92,NNW,337,10.4,-999.0,63,-99.99,,,0.00,Acu-Link.com,2013-01-03 05:45:00,
2013-01-03 01:02:00,8.4,-1.6,29.92,NW,315,12.5,-999.0,63,-99.99,,,0.00,Acu-Link.com,2013-01-03 06:02:00,
2013-01-03 01:17:00,9.1,-0.9,29.92,NNW,337,12.5,-999.0,63,-99.99,,,0.00,Acu-Link.com,2013-01-03 06:17:00,
2013-01-03 01:32:00,9.3,-1.0,29.93,West,270,8.9,-999.0,62,-99.99,,,0.00,Acu-Link.com,2013-01-03 06:32:00,
2013-01-03 01:47:00,9.9,0.2,29.92,NW,315,15.5,-999.0,64,-99.99,,,0.00,Acu-Link.com,2013-01-03 06:47:00,
2013-01-03 02:03:00,10.2,1.1,29.93,NNW,337,14.0,-999.0,66,-99.99,,,0.00,Acu-Link.com,2013-01-03 07:03:00,
2013-01-03 02:18:00,9.7,-0.3,29.94,North,0,13.5,-999.0,63,-99.99,,,0.00,Acu-Link.com,2013-01-03 07:18:00,
2013-01-03 02:33:00,10.6,0.9,29.93,NNW,337,19.7,-999.0,64,-99.99,,,0.00,Acu-Link.com,2013-01-03 07:33:00,
2013-01-03 02:48:00,10.2,0.1,29.94,NNE,22,11.9,-999.0,63,-99.99,,,0.00,Acu-Link.com,2013-01-03 07:48:00,
2013-01-03 03:04:00,9.5,-1.2,29.93,WNW,292,12.5,-999.0,61,-99.99,,,0.00,Acu-Link.com,2013-01-03 08:04:00,
2013-01-03 03:19:00,9.3,-0.7,29.94,NW,315,11.9,-999.0,63,-99.99,,,0.00,Acu-Link.com,2013-01-03 08:19:00,
2013-01-03 03:34:00,8.8,-1.5,29.94,NW,315,17.6,-999.0,62,-99.99,,,0.00,Acu-Link.com,2013-01-03 08:34:00,
2013-01-03 03:49:00,9.5,0.1,29.93,NW,315,14.0,-999.0,65,-99.99,,,0.00,Acu-Link.com,2013-01-03 08:49:00,
2013-01-03 04:09:00,9.3,-0.4,29.93,NNW,337,9.4,-999.0,64,-99.99,,,0.00,Acu-Link.com,2013-01-03 09:09:00,
2013-01-03 04:24:00,9.5,-0.5,29.93,NW,315,11.4,-999.0,63,-99.99,,,0.00,Acu-Link.com,2013-01-03 09:24:00,
2013-01-03 04:40:00,9.1,-1.2,29.94,NW,315,13.0,-999.0,62,-99.99,,,0.00,Acu-Link.com,2013-01-03 09:40:00,
2013-01-03 04:55:00,9.5,0.1,29.93,NNW,337,11.4,-999.0,65,-99.99,,,0.00,Acu-Link.com,2013-01-03 09:55:00,
2013-01-03 05:15:00,9.5,-0.9,29.93,NNW,337,10.9,-999.0,62,-99.99,,,0.00,Acu-Link.com,2013-01-03 10:15:00,
2013-01-03 05:31:00,9.9,-0.5,29.93,NNW,337,15.0,-999.0,62,-99.99,,,0.00,Acu-Link.com,2013-01-03 10:31:00,
2013-01-03 05:46:00,9.9,0.8,29.93,NNW,337,15.0,-999.0,66,-99.99,,,0.00,Acu-Link.com,2013-01-03 10:46:00,
2013-01-03 06:01:00,9.9,-0.5,29.93,NNW,337,18.1,-999.0,62,-99.99,,,0.00,Acu-Link.com,2013-01-03 11:01:00,
2013-01-03 06:16:00,9.7,-0.3,29.93,NNW,337,10.4,-999.0,63,-99.99,,,0.00,Acu-Link.com,2013-01-03 11:16:00,
2013-01-03 06:31:00,9.7,-1.0,29.93,North,0,11.9,-999.0,61,-99.99,,,0.00,Acu-Link.com,2013-01-03 11:31:00,
2013-01-03 06:47:00,10.0,0.3,29.93,North,0,8.9,-999.0,64,-99.99,,,0.00,Acu-Link.com,2013-01-03 11:47:00,
2013-01-03 07:02:00,9.1,-0.6,29.93,North,0,13.0,-999.0,64,-99.99,,,0.00,Acu-Link.com,2013-01-03 12:02:00,
2013-01-03 07:17:00,9.3,0.0,29.94,NNW,337,13.0,-999.0,65,-99.99,,,0.00,Acu-Link.com,2013-01-03 12:17:00,
2013-01-03 07:32:00,10.0,0.0,29.94,NNW,337,10.9,-999.0,63,-99.99,,,0.00,Acu-Link.com,2013-01-03 12:32:00,
2013-01-03 07:48:00,10.6,0.2,29.95,NNW,337,16.6,-999.0,62,-99.99,,,0.00,Acu-Link.com,2013-01-03 12:48:00,
2013-01-03 08:03:00,11.3,0.9,29.94,NW,315,9.9,-999.0,62,-99.99,,,0.00,Acu-Link.com,2013-01-03 13:03:00,
2013-01-03 08:18:00,12.0,0.8,29.95,NNE,22,16.6,-999.0,60,-99.99,,,0.00,Acu-Link.com,2013-01-03 13:18:00,
2013-01-03 08:33:00,12.2,1.4,29.95,NNW,337,11.4,-999.0,61,-99.99,,,0.00,Acu-Link.com,2013-01-03 13:33:00,
2013-01-03 08:48:00,12.9,2.4,29.94,NNW,337,8.3,-999.0,62,-99.99,,,0.00,Acu-Link.com,2013-01-03 13:48:00,
2013-01-03 09:04:00,13.8,2.2,29.95,NNW,337,12.5,-999.0,59,-99.99,,,0.00,Acu-Link.com,2013-01-03 14:04:00,
2013-01-03 09:19:00,14.0,2.7,29.93,NNE,22,13.0,-999.0,60,-99.99,,,0.00,Acu-Link.com,2013-01-03 14:19:00,
2013-01-03 09:35:00,14.9,3.6,29.92,NNW,337,13.0,-999.0,60,-99.99,,,0.00,Acu-Link.com,2013-01-03 14:35:00,
2013-01-03 09:50:00,17.1,3.0,29.93,ESE,112,3.7,-999.0,53,-99.99,,,0.00,Acu-Link.com,2013-01-03 14:50:00,
2013-01-03 10:06:00,18.1,3.5,29.93,NE,45,2.7,-999.0,52,-99.99,,,0.00,Acu-Link.com,2013-01-03 15:06:00,
2013-01-03 10:21:00,19.4,4.3,29.91,West,270,4.2,-999.0,51,-99.99,,,0.00,Acu-Link.com,2013-01-03 15:21:00,
2013-01-03 10:36:00,19.8,4.2,29.90,NE,45,3.2,-999.0,50,-99.99,,,0.00,Acu-Link.com,2013-01-03 15:36:00,
2013-01-03 10:51:00,21.0,4.9,29.90,NW,315,3.7,-999.0,49,-99.99,,,0.00,Acu-Link.com,2013-01-03 15:51:00,
2013-01-03 11:07:00,22.1,5.0,29.89,NE,45,4.2,-999.0,47,-99.99,,,0.00,Acu-Link.com,2013-01-03 16:07:00,
2013-01-03 11:22:00,22.5,4.9,29.88,North,0,9.4,-999.0,46,-99.99,,,0.00,Acu-Link.com,2013-01-03 16:22:00,
2013-01-03 11:37:00,22.1,4.0,29.88,NE,45,3.2,-999.0,45,-99.99,,,0.00,Acu-Link.com,2013-01-03 16:37:00,
2013-01-03 11:53:00,23.5,4.8,29.88,NNW,337,2.7,-999.0,44,-99.99,,,0.00,Acu-Link.com,2013-01-03 16:53:00,
2013-01-03 12:08:00,23.9,5.2,29.86,North,0,7.8,-999.0,44,-99.99,,,0.00,Acu-Link.com,2013-01-03 17:08:00,
2013-01-03 12:23:00,23.7,5.5,29.86,NW,315,8.3,-999.0,45,-99.99,,,0.00,Acu-Link.com,2013-01-03 17:23:00,
2013-01-03 12:39:00,24.6,5.3,29.85,NNW,337,6.3,-999.0,43,-99.99,,,0.00,Acu-Link.com,2013-01-03 17:39:00,
2013-01-03 12:54:00,24.1,5.4,29.84,West,270,6.3,-999.0,44,-99.99,,,0.00,Acu-Link.com,2013-01-03 17:54:00,
2013-01-03 13:09:00,26.4,6.5,29.84,West,270,6.3,-999.0,42,-99.99,,,0.00,Acu-Link.com,2013-01-03 18:09:00,
2013-01-03 13:24:00,25.7,6.8,29.84,West,270,6.8,-999.0,44,-99.99,,,0.00,Acu-Link.com,2013-01-03 18:24:00,
2013-01-03 13:40:00,24.8,5.0,29.84,North,0,5.8,-999.0,42,-99.99,,,0.00,Acu-Link.com,2013-01-03 18:40:00,
2013-01-03 13:55:00,26.2,5.7,29.82,NW,315,7.8,-999.0,41,-99.99,,,0.00,Acu-Link.com,2013-01-03 18:55:00,
2013-01-03 14:10:00,25.3,4.9,29.83,NW,315,5.3,-999.0,41,-99.99,,,0.00,Acu-Link.com,2013-01-03 19:10:00,
2013-01-03 14:56:00,25.9,4.9,29.82,West,270,6.3,-999.0,40,-99.99,,,0.00,Acu-Link.com,2013-01-03 19:56:00,
2013-01-03 15:12:00,25.3,5.5,29.81,NNW,337,7.8,-999.0,42,-99.99,,,0.00,Acu-Link.com,2013-01-03 20:12:00,
2013-01-03 15:27:00,25.0,4.7,29.82,NNW,337,6.3,-999.0,41,-99.99,,,0.00,Acu-Link.com,2013-01-03 20:27:00,
2013-01-03 15:42:00,24.1,4.9,29.82,West,270,6.3,-999.0,43,-99.99,,,0.00,Acu-Link.com,2013-01-03 20:42:00,
2013-01-03 15:58:00,22.1,3.6,29.81,NNW,337,3.7,-999.0,44,-99.99,,,0.00,Acu-Link.com,2013-01-03 20:58:00,
2013-01-03 16:13:00,21.6,4.5,29.82,ENE,67,3.7,-999.0,47,-99.99,,,0.00,Acu-Link.com,2013-01-03 21:13:00,
2013-01-03 16:28:00,20.8,4.7,29.81,North,0,3.7,-999.0,49,-99.99,,,0.00,Acu-Link.com,2013-01-03 21:28:00,
2013-01-03 16:59:00,19.6,4.9,29.81,NNE,22,2.2,-999.0,52,-99.99,,,0.00,Acu-Link.com,2013-01-03 21:59:00,
2013-01-03 17:14:00,19.4,3.8,29.83,NE,45,3.2,-999.0,50,-99.99,,,0.00,Acu-Link.com,2013-01-03 22:14:00,
2013-01-03 17:29:00,19.9,4.3,29.82,NNE,22,4.2,-999.0,50,-99.99,,,0.00,Acu-Link.com,2013-01-03 22:29:00,
2013-01-03 17:44:00,20.1,4.5,29.81,ENE,67,2.7,-999.0,50,-99.99,,,0.00,Acu-Link.com,2013-01-03 22:44:00,
2013-01-03 18:00:00,20.3,4.2,29.81,NE,45,5.3,-999.0,49,-99.99,,,0.00,Acu-Link.com,2013-01-03 23:00:00,
2013-01-03 18:15:00,20.1,4.0,29.83,NE,45,2.7,-999.0,49,-99.99,,,0.00,Acu-Link.com,2013-01-03 23:15:00,
2013-01-03 18:31:00,19.8,3.8,29.83,NNW,337,8.3,-999.0,49,-99.99,,,0.00,Acu-Link.com,2013-01-03 23:31:00,
2013-01-03 18:46:00,19.4,3.8,29.84,NNE,22,2.7,-999.0,50,-99.99,,,0.00,Acu-Link.com,2013-01-03 23:46:00,
2013-01-03 19:01:00,19.2,4.9,29.83,NNW,337,6.3,-999.0,53,-99.99,,,0.00,Acu-Link.com,2013-01-04 00:01:00,
2013-01-03 19:17:00,19.8,5.5,29.82,NNW,337,4.7,-999.0,53,-99.99,,,0.00,Acu-Link.com,2013-01-04 00:17:00,
2013-01-03 19:32:00,19.4,3.4,29.83,NNE,22,8.9,-999.0,49,-99.99,,,0.00,Acu-Link.com,2013-01-04 00:32:00,
2013-01-03 19:47:00,19.2,3.6,29.83,North,0,6.3,-999.0,50,-99.99,,,0.00,Acu-Link.com,2013-01-04 00:47:00,
2013-01-03 20:03:00,18.9,3.4,29.82,NNW,337,7.3,-999.0,50,-99.99,,,0.00,Acu-Link.com,2013-01-04 01:03:00,
2013-01-03 20:18:00,18.7,3.2,29.83,NW,315,2.7,-999.0,50,-99.99,,,0.00,Acu-Link.com,2013-01-04 01:18:00,
2013-01-03 20:33:00,18.9,4.6,29.82,WSW,247,3.7,-999.0,53,-99.99,,,0.00,Acu-Link.com,2013-01-04 01:33:00,
2013-01-03 20:48:00,19.6,6.1,29.84,West,270,2.7,-999.0,55,-99.99,,,0.00,Acu-Link.com,2013-01-04 01:48:00,
2013-01-03 21:04:00,18.9,6.6,29.82,NE,45,2.2,-999.0,58,-99.99,,,0.00,Acu-Link.com,2013-01-04 02:04:00,
2013-01-03 21:19:00,19.9,6.8,29.83,SW,225,4.7,-999.0,56,-99.99,,,0.00,Acu-Link.com,2013-01-04 02:19:00,
2013-01-03 21:35:00,19.9,8.3,29.82,WSW,247,2.2,-999.0,60,-99.99,,,0.00,Acu-Link.com,2013-01-04 02:35:00,
2013-01-03 21:50:00,19.6,9.1,29.83,WSW,247,7.3,-999.0,63,-99.99,,,0.00,Acu-Link.com,2013-01-04 02:50:00,
2013-01-03 22:06:00,19.8,8.6,29.83,SW,225,7.8,-999.0,61,-99.99,,,0.00,Acu-Link.com,2013-01-04 03:06:00,
2013-01-03 22:21:00,19.6,9.8,29.82,WSW,247,4.2,-999.0,65,-99.99,,,0.00,Acu-Link.com,2013-01-04 03:21:00,
2013-01-03 22:36:00,19.8,10.3,29.83,WNW,292,5.3,-999.0,66,-99.99,,,0.00,Acu-Link.com,2013-01-04 03:36:00,
2013-01-03 22:52:00,19.9,10.7,29.83,West,270,3.7,-999.0,67,-99.99,,,0.00,Acu-Link.com,2013-01-04 03:52:00,
2013-01-03 23:07:00,19.8,10.3,29.81,West,270,5.3,-999.0,66,-99.99,,,0.00,Acu-Link.com,2013-01-04 04:07:00,
2013-01-03 23:22:00,19.2,10.1,29.80,West,270,5.3,-999.0,67,-99.99,,,0.00,Acu-Link.com,2013-01-04 04:22:00,
2013-01-03 23:38:00,19.0,9.5,29.80,West,270,7.3,-999.0,66,-99.99,,,0.00,Acu-Link.com,2013-01-04 04:38:00,
2013-01-03 23:53:00,19.2,10.7,29.79,West,270,4.7,-999.0,69,-99.99,,,0.00,Acu-Link.com,2013-01-04 04:53:00,